Time;durP1;ratioP1;P1;durP2;ratioP2;P2;SDS_P1;SDS_P2;PMS_P1;PMS_P2;Temp;Humidity;BMP_temperature;BMP_pressure;BME280_temperature;BME280_humidity;BME280_pressure;Samples;Min_cycle;Max_cycle;Signal;HPM_P1;HPM_P2
2021/10/29 00:01:56;;;;;;;20.67;8.77;;;;;;;-145.18;100.00;60484.78;5070421;28;20384;-70
2021/10/29 00:04:22;;;;;;;23.27;9.00;;;;;;;-145.18;100.00;60484.78;5074946;28;20143;-70
2021/10/29 00:06:49;;;;;;;18.57;9.20;;;;;;;-145.18;100.00;60484.78;5078237;28;20055;-70
2021/10/29 00:09:15;;;;;;;21.23;9.57;;;;;;;-145.18;100.00;60484.78;5076553;28;20567;-70
2021/10/29 00:11:40;;;;;;;23.53;9.50;;;;;;;-145.18;100.00;60484.78;5079069;28;20020;-70
2021/10/29 00:14:06;;;;;;;22.70;9.53;;;;;;;-145.18;100.00;60484.78;5071223;28;20059;-70
2021/10/29 00:16:31;;;;;;;23.57;10.07;;;;;;;-145.18;100.00;60484.78;5078325;28;20503;-70
2021/10/29 00:18:57;;;;;;;22.30;9.63;;;;;;;-145.18;100.00;60484.78;5074023;28;20201;-70
2021/10/29 00:21:22;;;;;;;26.40;9.63;;;;;;;-145.18;100.00;60484.78;5074998;28;20031;-70
2021/10/29 00:23:48;;;;;;;24.10;9.60;;;;;;;-145.18;100.00;60484.78;5077959;28;20027;-70
2021/10/29 00:26:13;;;;;;;22.30;9.73;;;;;;;-145.18;100.00;60484.78;5078245;28;20050;-70
2021/10/29 00:28:39;;;;;;;25.37;10.77;;;;;;;-145.18;100.00;60484.78;5076822;28;20036;-70
2021/10/29 00:31:04;;;;;;;23.57;9.93;;;;;;;-145.18;100.00;60484.78;5069365;28;20040;-70
2021/10/29 00:33:30;;;;;;;24.20;9.77;;;;;;;-145.18;100.00;60484.78;5078180;28;20028;-70
2021/10/29 00:35:56;;;;;;;23.93;9.33;;;;;;;-145.18;100.00;60484.78;5076830;28;20448;-70
2021/10/29 00:38:21;;;;;;;24.47;9.40;;;;;;;-145.18;100.00;60484.78;5078493;28;20042;-70
2021/10/29 00:40:47;;;;;;;25.53;10.33;;;;;;;-145.18;100.00;60484.78;5076374;28;20063;-70
2021/10/29 00:43:12;;;;;;;23.97;10.77;;;;;;;-145.18;100.00;60484.78;5077041;28;20408;-70
2021/10/29 00:45:38;;;;;;;26.00;11.20;;;;;;;-145.18;100.00;60484.78;5075142;28;20108;-70
2021/10/29 00:48:05;;;;;;;26.30;9.87;;;;;;;-145.18;100.00;60484.78;5077024;28;20028;-70
2021/10/29 00:50:30;;;;;;;26.37;10.10;;;;;;;-145.18;100.00;60484.78;5075593;28;20504;-70
2021/10/29 00:52:56;;;;;;;23.10;9.60;;;;;;;-145.18;100.00;60484.78;5072661;28;20078;-70
2021/10/29 00:55:23;;;;;;;23.63;9.27;;;;;;;-145.18;100.00;60484.78;5070883;28;20114;-70
2021/10/29 00:57:51;;;;;;;24.10;10.87;;;;;;;-145.18;100.00;60484.78;5076363;28;20023;-70
2021/10/29 01:00:24;;;;;;;23.23;9.97;;;;;;;-145.18;100.00;60484.78;5075180;28;20032;-70
2021/10/29 01:02:50;;;;;;;21.75;9.68;;;;;;;-145.18;100.00;60484.78;5076071;22;20121;-70
2021/10/29 01:05:16;;;;;;;23.07;9.90;;;;;;;-145.18;100.00;60484.78;5070117;28;20036;-70
2021/10/29 01:07:42;;;;;;;23.23;9.10;;;;;;;-145.18;100.00;60484.78;5079010;28;20191;-70
2021/10/29 01:10:08;;;;;;;24.57;10.30;;;;;;;-145.18;100.00;60484.78;5077777;28;20031;-70
2021/10/29 01:12:33;;;;;;;22.93;9.47;;;;;;;-145.18;100.00;60484.78;5079223;28;20447;-70
2021/10/29 01:15:01;;;;;;;24.03;9.80;;;;;;;-145.18;100.00;60484.78;5077897;28;20055;-70
2021/10/29 01:17:27;;;;;;;22.37;9.60;;;;;;;-145.18;100.00;60484.78;5076255;28;20044;-70
2021/10/29 01:19:55;;;;;;;25.33;9.63;;;;;;;-145.18;100.00;60484.78;5072815;28;20021;-70
2021/10/29 01:22:22;;;;;;;20.97;8.97;;;;;;;-145.18;100.00;60484.78;5069598;28;20187;-70
2021/10/29 01:24:49;;;;;;;20.50;8.53;;;;;;;-145.18;100.00;60484.78;5072423;28;20462;-70
2021/10/29 01:27:15;;;;;;;22.43;8.50;;;;;;;-145.18;100.00;60484.78;5078021;28;20249;-70
2021/10/29 01:29:42;;;;;;;18.77;8.73;;;;;;;-145.18;100.00;60484.78;5073468;28;20280;-70
2021/10/29 01:32:09;;;;;;;20.77;8.40;;;;;;;-145.18;100.00;60484.78;5072257;28;20020;-70
2021/10/29 01:34:36;;;;;;;21.33;8.33;;;;;;;-145.18;100.00;60484.78;5068130;28;20040;-70
2021/10/29 01:37:05;;;;;;;19.90;8.57;;;;;;;-145.18;100.00;60484.78;5074706;28;20032;-70
2021/10/29 01:39:30;;;;;;;25.93;9.33;;;;;;;-145.18;100.00;60484.78;5069792;28;20139;-70
2021/10/29 01:41:56;;;;;;;17.60;8.43;;;;;;;-145.18;100.00;60484.78;5075680;28;20142;-70
2021/10/29 01:44:21;;;;;;;20.80;8.70;;;;;;;-145.18;100.00;60484.78;5072375;28;20291;-70
2021/10/29 01:46:47;;;;;;;22.23;8.63;;;;;;;-145.18;100.00;60484.78;5068919;28;20024;-70
2021/10/29 01:49:14;;;;;;;21.70;8.53;;;;;;;-145.18;100.00;60484.78;5079000;28;20027;-70
2021/10/29 01:51:40;;;;;;;23.97;8.80;;;;;;;-145.18;100.00;60484.78;5076583;28;20020;-70
2021/10/29 01:54:06;;;;;;;22.60;9.23;;;;;;;-145.18;100.00;60484.78;5075298;28;20101;-71
2021/10/29 01:56:32;;;;;;;20.50;8.90;;;;;;;-145.18;100.00;60484.78;5078651;28;20124;-71
2021/10/29 01:58:59;;;;;;;20.67;8.43;;;;;;;-145.18;100.00;60484.78;5071491;28;20190;-70
2021/10/29 02:01:27;;;;;;;19.80;8.73;;;;;;;-145.18;100.00;60484.78;5072560;28;20407;-71
2021/10/29 02:03:53;;;;;;;20.20;8.80;;;;;;;-145.18;100.00;60484.78;5058235;28;20063;-70
2021/10/29 02:06:19;;;;;;;20.57;8.73;;;;;;;-145.18;100.00;60484.78;5056938;28;20017;-70
2021/10/29 02:08:46;;;;;;;21.43;9.27;;;;;;;-145.18;100.00;60484.78;5058409;28;20616;-70
2021/10/29 02:11:12;;;;;;;25.23;8.60;;;;;;;-145.18;100.00;60484.78;5052361;28;20147;-70
2021/10/29 02:13:38;;;;;;;20.93;8.27;;;;;;;-145.18;100.00;60484.78;5059191;28;20409;-70
2021/10/29 02:16:04;;;;;;;21.33;8.77;;;;;;;-145.18;100.00;60484.78;5061747;28;20044;-70
2021/10/29 02:18:30;;;;;;;24.37;9.37;;;;;;;-145.18;100.00;60484.78;5061534;28;20025;-72
2021/10/29 02:20:56;;;;;;;19.80;8.17;;;;;;;-145.18;100.00;60484.78;5061534;28;20332;-71
2021/10/29 02:23:22;;;;;;;22.80;9.80;;;;;;;-145.18;100.00;60484.78;5061900;28;20366;-70
2021/10/29 02:25:48;;;;;;;21.20;9.67;;;;;;;-145.18;100.00;60484.78;5064052;28;20029;-72
2021/10/29 02:28:16;;;;;;;21.53;8.50;;;;;;;-145.18;100.00;60484.78;5062193;28;20051;-71
2021/10/29 02:30:42;;;;;;;21.83;8.87;;;;;;;-145.18;100.00;60484.78;5061702;28;20024;-71
2021/10/29 02:33:11;;;;;;;22.63;8.70;;;;;;;-145.18;100.00;60484.78;5062048;28;20112;-70
2021/10/29 02:35:37;;;;;;;20.57;9.27;;;;;;;-145.18;100.00;60484.78;5061583;28;20028;-70
2021/10/29 02:38:03;;;;;;;22.00;9.23;;;;;;;-145.18;100.00;60484.78;5061671;28;20423;-70
2021/10/29 02:40:29;;;;;;;24.10;9.57;;;;;;;-145.18;100.00;60484.78;5061436;28;20037;-70
2021/10/29 02:42:54;;;;;;;22.97;9.10;;;;;;;-145.18;100.00;60484.78;5061226;28;20071;-70
2021/10/29 02:45:20;;;;;;;23.93;9.20;;;;;;;-145.18;100.00;60484.78;5061399;28;20067;-70
2021/10/29 02:47:47;;;;;;;22.10;8.87;;;;;;;-145.18;100.00;60484.78;5060911;28;20127;-70
2021/10/29 02:50:17;;;;;;;24.40;8.97;;;;;;;-145.18;100.00;60484.78;5053377;28;20124;-70
2021/10/29 02:52:44;;;;;;;22.13;9.07;;;;;;;-145.18;100.00;60484.78;5062678;28;20090;-70
2021/10/29 02:55:10;;;;;;;24.93;9.07;;;;;;;-145.18;100.00;60484.78;5061065;28;20036;-70
2021/10/29 02:57:36;;;;;;;25.57;9.77;;;;;;;-145.18;100.00;60484.78;5060312;28;20460;-70
2021/10/29 03:00:14;;;;;;;25.67;9.63;;;;;;;-145.18;100.00;60484.78;5061400;28;20109;-70
2021/10/29 03:02:41;;;;;;;20.53;8.43;;;;;;;-145.18;100.00;60484.78;5061134;28;20040;-70
2021/10/29 03:05:07;;;;;;;27.20;9.40;;;;;;;-145.18;100.00;60484.78;5069605;28;20032;-70
2021/10/29 03:07:33;;;;;;;27.57;9.57;;;;;;;-145.18;100.00;60484.78;5063188;28;20166;-70
2021/10/29 03:09:58;;;;;;;24.87;9.03;;;;;;;-145.18;100.00;60484.78;5061131;28;20361;-70
2021/10/29 03:12:24;;;;;;;22.13;9.20;;;;;;;-145.18;100.00;60484.78;5061325;28;20591;-70
2021/10/29 03:14:50;;;;;;;28.20;9.63;;;;;;;-145.18;100.00;60484.78;5060770;28;20060;-70
2021/10/29 03:17:16;;;;;;;27.80;9.40;;;;;;;-145.18;100.00;60484.78;5060961;28;20249;-70
2021/10/29 03:19:42;;;;;;;21.87;9.00;;;;;;;-145.18;100.00;60484.78;5055268;28;20077;-70
2021/10/29 03:22:08;;;;;;;23.97;8.93;;;;;;;-145.18;100.00;60484.78;5060623;28;20487;-70
2021/10/29 03:24:34;;;;;;;20.10;8.40;;;;;;;-145.18;100.00;60484.78;5060396;28;20161;-70
2021/10/29 03:27:00;;;;;;;23.60;8.53;;;;;;;-145.18;100.00;60484.78;5060472;28;20220;-70
2021/10/29 03:29:25;;;;;;;25.27;8.70;;;;;;;-145.18;100.00;60484.78;5059726;28;20103;-70
2021/10/29 03:31:51;;;;;;;22.53;8.33;;;;;;;-145.18;100.00;60484.78;5060702;28;20051;-70
2021/10/29 03:34:17;;;;;;;23.63;9.17;;;;;;;-145.18;100.00;60484.78;5059587;28;20066;-70
2021/10/29 03:36:43;;;;;;;21.77;8.70;;;;;;;-145.18;100.00;60484.78;5060009;28;20031;-70
2021/10/29 03:39:25;;;;;;;21.33;8.53;;;;;;;-145.18;100.00;60484.78;5059245;28;20093;-70
2021/10/29 03:42:05;;;;;;;;;;;;;;;-145.18;100.00;60484.78;5052429;28;20531;-70
2021/10/29 03:44:46;;;;;;;21.77;8.40;;;;;;;-145.18;100.00;60484.78;5058718;28;20197;-70
2021/10/29 03:47:13;;;;;;;25.47;8.90;;;;;;;-145.18;100.00;60484.78;5057230;28;20033;-70
2021/10/29 03:49:54;;;;;;;23.90;8.93;;;;;;;-145.18;100.00;60484.78;5056734;28;20032;-70
2021/10/29 03:52:27;;;;;;;20.30;8.77;;;;;;;-145.18;100.00;60484.78;5059463;28;20036;-70
2021/10/29 03:54:56;;;;;;;22.93;9.53;;;;;;;-145.18;100.00;60484.78;5058927;28;20032;-70
2021/10/29 03:57:25;;;;;;;31.30;8.87;;;;;;;-145.18;100.00;60484.78;5060027;28;20065;-70
2021/10/29 03:59:55;;;;;;;24.37;9.17;;;;;;;-145.18;100.00;60484.78;5061136;28;20285;-70
2021/10/29 04:02:21;;;;;;;22.37;8.60;;;;;;;-145.18;100.00;60484.78;5058281;28;20068;-70
2021/10/29 04:04:47;;;;;;;23.40;9.40;;;;;;;-145.18;100.00;60484.78;5059121;28;20312;-70
2021/10/29 04:07:13;;;;;;;25.23;8.80;;;;;;;-145.18;100.00;60484.78;5060207;28;20447;-70
2021/10/29 04:09:39;;;;;;;30.40;9.30;;;;;;;-145.18;100.00;60484.78;5059158;28;20516;-70
2021/10/29 04:12:05;;;;;;;22.30;8.83;;;;;;;-145.18;100.00;60484.78;5059667;28;20492;-70
2021/10/29 04:14:30;;;;;;;26.27;8.73;;;;;;;-145.18;100.00;60484.78;5058497;28;20052;-70
2021/10/29 04:16:56;;;;;;;22.40;8.83;;;;;;;-145.18;100.00;60484.78;5055470;28;20655;-70
2021/10/29 04:19:23;;;;;;;22.27;8.63;;;;;;;-145.18;100.00;60484.78;5055312;28;20067;-70
2021/10/29 04:21:49;;;;;;;18.90;8.60;;;;;;;-145.18;100.00;60484.78;5057053;28;20110;-70
2021/10/29 04:24:15;;;;;;;24.13;9.23;;;;;;;-145.18;100.00;60484.78;5058535;28;20021;-70
2021/10/29 04:26:41;;;;;;;22.90;9.03;;;;;;;-145.18;100.00;60484.78;5060045;28;20056;-70
2021/10/29 04:29:15;;;;;;;24.77;9.27;;;;;;;-145.18;100.00;60484.78;5059597;28;20059;-70
2021/10/29 04:31:49;;;;;;;26.67;8.67;;;;;;;-145.18;100.00;60484.78;5059755;28;20378;-70
2021/10/29 04:34:20;;;;;;;25.63;8.30;;;;;;;-145.18;100.00;60484.78;5064096;28;20035;-70
2021/10/29 04:36:46;;;;;;;23.53;9.13;;;;;;;-145.18;100.00;60484.78;5059515;28;20032;-70
2021/10/29 04:39:13;;;;;;;20.53;8.37;;;;;;;-145.18;100.00;60484.78;5059721;28;20264;-70
2021/10/29 04:41:44;;;;;;;21.67;8.27;;;;;;;-145.18;100.00;60484.78;5059933;28;20036;-70
2021/10/29 04:44:10;;;;;;;20.10;8.23;;;;;;;-145.18;100.00;60484.78;5059810;28;20023;-69
2021/10/29 04:46:35;;;;;;;21.00;8.27;;;;;;;-145.18;100.00;60484.78;5060188;28;20620;-70
2021/10/29 04:49:01;;;;;;;22.13;8.50;;;;;;;-145.18;100.00;60484.78;5059687;28;20166;-70
2021/10/29 04:51:28;;;;;;;23.13;8.13;;;;;;;-145.18;100.00;60484.78;5059884;28;20230;-70
2021/10/29 04:53:54;;;;;;;23.37;8.20;;;;;;;-145.18;100.00;60484.78;5059683;28;20060;-70
2021/10/29 04:56:20;;;;;;;19.50;8.00;;;;;;;-145.18;100.00;60484.78;5059267;28;20093;-70
2021/10/29 04:58:45;;;;;;;23.10;8.63;;;;;;;-145.18;100.00;60484.78;5059726;28;20627;-70
2021/10/29 05:01:11;;;;;;;30.97;8.00;;;;;;;-145.18;100.00;60484.78;5059804;28;20024;-70
2021/10/29 05:03:39;;;;;;;22.63;8.63;;;;;;;-145.18;100.00;60484.78;5059684;28;20056;-70
2021/10/29 05:06:05;;;;;;;23.13;7.97;;;;;;;-145.18;100.00;60484.78;5059367;28;20032;-70
2021/10/29 05:08:31;;;;;;;20.57;8.30;;;;;;;-145.18;100.00;60484.78;5061364;28;20028;-69
2021/10/29 05:10:59;;;;;;;17.70;7.87;;;;;;;-145.18;100.00;60484.78;5062464;28;20079;-70
2021/10/29 05:13:25;;;;;;;23.83;8.33;;;;;;;-145.18;100.00;60484.78;5065225;28;20036;-70
2021/10/29 05:15:50;;;;;;;20.93;7.43;;;;;;;-145.18;100.00;60484.78;5060109;28;20270;-70
2021/10/29 05:18:17;;;;;;;19.63;8.33;;;;;;;-145.18;100.00;60484.78;5060014;28;20151;-70
2021/10/29 05:20:43;;;;;;;23.27;8.20;;;;;;;-145.18;100.00;60484.78;5059718;28;20044;-70
2021/10/29 05:23:09;;;;;;;23.53;8.37;;;;;;;-145.18;100.00;60484.78;5059556;28;20522;-71
2021/10/29 05:25:35;;;;;;;25.60;9.50;;;;;;;-145.18;100.00;60484.78;5059146;28;20085;-71
2021/10/29 05:28:01;;;;;;;23.83;8.23;;;;;;;-145.18;100.00;60484.78;5059582;28;20240;-71
2021/10/29 05:30:27;;;;;;;23.60;8.60;;;;;;;-145.18;100.00;60484.78;5059113;28;20040;-70
2021/10/29 05:32:52;;;;;;;20.37;8.53;;;;;;;-145.18;100.00;60484.78;5064629;28;20032;-70
2021/10/29 05:35:18;;;;;;;19.93;8.43;;;;;;;-145.18;100.00;60484.78;5058208;28;20024;-70
2021/10/29 05:37:44;;;;;;;28.87;8.43;;;;;;;-145.18;100.00;60484.78;5060074;28;20028;-70
2021/10/29 05:40:11;;;;;;;21.73;8.53;;;;;;;-145.18;100.00;60484.78;5061984;28;20038;-71
2021/10/29 05:42:37;;;;;;;24.00;8.67;;;;;;;-145.18;100.00;60484.78;5063153;28;20366;-71
2021/10/29 05:45:08;;;;;;;22.23;7.87;;;;;;;-145.18;100.00;60484.78;5062847;28;20028;-71
2021/10/29 05:47:34;;;;;;;28.47;9.00;;;;;;;-145.18;100.00;60484.78;5059331;28;20233;-71
2021/10/29 05:50:00;;;;;;;21.63;7.80;;;;;;;-145.18;100.00;60484.78;5063186;28;20492;-71
2021/10/29 05:52:29;;;;;;;25.90;8.43;;;;;;;-145.18;100.00;60484.78;5058508;28;20032;-71
2021/10/29 05:55:13;;;;;;;22.00;8.43;;;;;;;-145.18;100.00;60484.78;5063587;28;20032;-69
2021/10/29 05:57:40;;;;;;;20.17;7.20;;;;;;;-145.18;100.00;60484.78;5063164;28;20048;-69
2021/10/29 06:00:07;;;;;;;22.50;8.00;;;;;;;-145.18;100.00;60484.78;5063037;28;20046;-69
2021/10/29 06:02:32;;;;;;;22.47;8.50;;;;;;;-145.18;100.00;60484.78;5062629;28;20060;-70
2021/10/29 06:04:58;;;;;;;23.67;8.40;;;;;;;-145.18;100.00;60484.78;5061103;28;20036;-69
2021/10/29 06:07:23;;;;;;;20.03;8.57;;;;;;;-145.18;100.00;60484.78;5063352;28;20214;-69
2021/10/29 06:09:49;;;;;;;20.10;8.40;;;;;;;-145.18;100.00;60484.78;5062664;28;20040;-69
2021/10/29 06:12:14;;;;;;;21.33;8.07;;;;;;;-145.18;100.00;60484.78;5063300;28;20043;-69
2021/10/29 06:14:41;;;;;;;23.20;8.80;;;;;;;-145.18;100.00;60484.78;5062834;28;20086;-69
2021/10/29 06:17:07;;;;;;;23.20;8.37;;;;;;;-145.18;100.00;60484.78;5063475;28;20111;-69
2021/10/29 06:19:33;;;;;;;22.33;8.40;;;;;;;-145.18;100.00;60484.78;5070907;28;20063;-69
2021/10/29 06:22:09;;;;;;;21.07;8.13;;;;;;;-145.18;100.00;60484.78;5063565;28;20032;-69
2021/10/29 06:24:35;;;;;;;24.27;8.53;;;;;;;-145.18;100.00;60484.78;5063283;28;20039;-69
2021/10/29 06:28:09;;;;;;;20.20;8.80;;;;;;;-145.18;100.00;60484.78;5062894;28;20323;-69
2021/10/29 06:29:48;;;;;;;24.63;8.27;;;;;;;-145.18;100.00;60484.78;5061070;28;20098;-69
2021/10/29 06:32:20;;;;;;;22.17;7.60;;;;;;;-145.18;100.00;60484.78;5062190;28;20534;-69
2021/10/29 06:34:46;;;;;;;21.77;7.53;;;;;;;-145.18;100.00;60484.78;5062033;28;20036;-69
2021/10/29 06:37:16;;;;;;;19.10;7.20;;;;;;;-145.18;100.00;60484.78;5061560;28;20032;-69
2021/10/29 06:39:42;;;;;;;18.23;7.20;;;;;;;-145.18;100.00;60484.78;5062297;28;20032;-69
2021/10/29 06:42:13;;;;;;;19.33;7.30;;;;;;;-145.18;100.00;60484.78;5062925;28;20036;-69
2021/10/29 06:44:53;;;;;;;16.43;6.67;;;;;;;-145.18;100.00;60484.78;5061727;28;20036;-69
2021/10/29 06:48:04;;;;;;;20.17;8.03;;;;;;;-145.18;100.00;60484.78;5062259;28;20606;-69
2021/10/29 07:01:13;;;;;;;22.37;7.67;;;;;;;-145.18;100.00;60484.78;5059668;28;20051;-69
2021/10/29 07:13:41;;;;;;;21.60;6.70;;;;;;;-145.18;100.00;60484.78;5060417;28;20495;-69
2021/10/29 07:42:09;;;;;;;14.00;5.20;;;;;;;-145.18;100.00;60484.78;5054211;28;20044;-71
2021/10/29 07:44:37;;;;;;;15.33;5.70;;;;;;;-145.18;100.00;60484.78;5058742;28;20404;-71
2021/10/29 07:47:03;;;;;;;15.40;6.33;;;;;;;-145.18;100.00;60484.78;5059867;28;20504;-71
2021/10/29 07:49:29;;;;;;;13.70;5.93;;;;;;;-145.18;100.00;60484.78;5059768;28;20040;-70
2021/10/29 07:51:56;;;;;;;12.80;5.47;;;;;;;-145.18;100.00;60484.78;5057922;28;20032;-71
2021/10/29 07:54:23;;;;;;;13.77;4.90;;;;;;;-145.18;100.00;60484.78;5058912;28;20060;-71
2021/10/29 07:56:49;;;;;;;11.57;4.23;;;;;;;-145.18;100.00;60484.78;5059834;28;20127;-72
2021/10/29 07:59:15;;;;;;;12.30;4.63;;;;;;;-145.18;100.00;60484.78;5059457;28;20036;-73
2021/10/29 08:01:40;;;;;;;11.03;4.73;;;;;;;-145.18;100.00;60484.78;5058955;28;20504;-73
2021/10/29 08:04:06;;;;;;;13.53;5.13;;;;;;;-145.18;100.00;60484.78;5058843;28;20035;-73
2021/10/29 08:06:32;;;;;;;9.07;4.40;;;;;;;-145.18;100.00;60484.78;5059164;28;20029;-73
2021/10/29 08:09:00;;;;;;;11.70;4.47;;;;;;;-145.18;100.00;60484.78;5059638;28;20267;-74
2021/10/29 08:11:27;;;;;;;13.20;4.87;;;;;;;-145.18;100.00;60484.78;5058684;28;20033;-75
2021/10/29 08:13:52;;;;;;;10.37;4.30;;;;;;;-145.18;100.00;60484.78;5058654;28;20508;-74
2021/10/29 08:16:18;;;;;;;13.07;4.50;;;;;;;-145.18;100.00;60484.78;5058697;28;20114;-74
2021/10/29 08:18:45;;;;;;;13.03;4.10;;;;;;;-145.18;100.00;60484.78;5058603;28;20085;-75
2021/10/29 08:21:11;;;;;;;10.57;4.47;;;;;;;-145.18;100.00;60484.78;5058605;28;20508;-73
2021/10/29 08:23:39;;;;;;;10.53;4.67;;;;;;;-145.18;100.00;60484.78;5058776;28;20366;-73
2021/10/29 08:26:05;;;;;;;10.23;4.30;;;;;;;-145.18;100.00;60484.78;5057980;28;20107;-72
2021/10/29 08:28:44;;;;;;;10.90;4.27;;;;;;;-145.18;100.00;60484.78;5058706;28;20139;-74
2021/10/29 08:31:09;;;;;;;9.07;4.07;;;;;;;-145.18;100.00;60484.78;5058965;28;20558;-74
2021/10/29 08:33:35;;;;;;;9.90;4.70;;;;;;;-145.18;100.00;60484.78;5058881;28;20120;-72
2021/10/29 08:36:01;;;;;;;10.83;4.50;;;;;;;-145.18;100.00;60484.78;5058578;28;20032;-71
2021/10/29 08:38:26;;;;;;;11.13;4.93;;;;;;;-145.18;100.00;60484.78;5058610;28;20256;-71
2021/10/29 08:40:54;;;;;;;12.10;5.03;;;;;;;-145.18;100.00;60484.78;5059324;28;20032;-71
2021/10/29 08:43:20;;;;;;;11.17;4.50;;;;;;;-145.18;100.00;60484.78;5059735;28;20109;-71
2021/10/29 08:45:46;;;;;;;12.33;5.03;;;;;;;-145.18;100.00;60484.78;5058147;28;20173;-71
2021/10/29 08:48:12;;;;;;;12.40;5.60;;;;;;;-145.18;100.00;60484.78;5058381;28;20408;-71
2021/10/29 08:50:39;;;;;;;10.40;5.23;;;;;;;-145.18;100.00;60484.78;5058748;28;20032;-71
2021/10/29 08:53:04;;;;;;;12.07;5.93;;;;;;;-145.18;100.00;60484.78;5059105;28;20211;-71
2021/10/29 08:55:32;;;;;;;15.10;5.50;;;;;;;-145.18;100.00;60484.78;5058896;28;20067;-71
2021/10/29 08:58:01;;;;;;;15.97;6.10;;;;;;;-145.18;100.00;60484.78;5059361;28;20182;-71
2021/10/29 09:00:30;;;;;;;11.13;5.27;;;;;;;-145.18;100.00;60484.78;5060532;28;20028;-71
2021/10/29 09:03:25;;;;;;;13.67;5.43;;;;;;;-145.18;100.00;60484.78;5060347;28;20057;-71
2021/10/29 09:06:16;;;;;;;;;;;;;;;-145.18;100.00;60484.78;5057810;28;20029;-71
2021/10/29 09:15:54;;;;;;;15.70;5.57;;;;;;;-145.18;100.00;60484.78;5060613;28;20144;-72
2021/10/29 09:17:28;;;;;;;15.53;5.20;;;;;;;-145.18;100.00;60484.78;5061496;28;20058;-71
2021/10/29 09:31:34;;;;;;;12.37;5.30;;;;;;;-145.18;100.00;60484.78;5064568;28;20120;-72
2021/10/29 09:34:10;;;;;;;;;;;;;;;-145.18;100.00;60484.78;5063952;28;20314;-72
2021/10/29 09:36:56;;;;;;;17.20;5.50;;;;;;;-145.18;100.00;60484.78;5062597;28;19916;-72
2021/10/29 09:39:24;;;;;;;12.13;5.47;;;;;;;-145.18;100.00;60484.78;5057433;28;20269;-72
2021/10/29 09:42:08;;;;;;;11.83;5.13;;;;;;;-145.18;100.00;60484.78;5063660;28;20385;-72
2021/10/29 09:44:45;;;;;;;12.63;5.43;;;;;;;-145.18;100.00;60484.78;5061995;28;20190;-72
2021/10/29 09:47:12;;;;;;;12.40;5.70;;;;;;;-145.18;100.00;60484.78;5064075;28;20032;-72
2021/10/29 09:49:51;;;;;;;11.87;5.73;;;;;;;-145.18;100.00;60484.78;5062454;28;20080;-72
2021/10/29 09:55:48;;;;;;;16.87;5.00;;;;;;;-145.18;100.00;60484.78;5049156;28;20044;-72
2021/10/29 09:58:14;;;;;;;11.93;4.80;;;;;;;-145.18;100.00;60484.78;5057141;28;20100;-73
2021/10/29 10:00:44;;;;;;;13.13;6.00;;;;;;;-145.18;100.00;60484.78;5062407;28;20032;-73
2021/10/29 10:03:10;;;;;;;9.83;4.50;;;;;;;-145.18;100.00;60484.78;5063037;28;20043;-71
2021/10/29 10:05:37;;;;;;;10.00;4.63;;;;;;;-145.18;100.00;60484.78;5061447;28;20035;-71
2021/10/29 10:08:05;;;;;;;11.03;4.50;;;;;;;-145.18;100.00;60484.78;5060835;28;20692;-71
2021/10/29 10:10:32;;;;;;;10.47;4.53;;;;;;;-145.18;100.00;60484.78;5061505;28;20028;-71
2021/10/29 10:12:59;;;;;;;11.13;4.77;;;;;;;-145.18;100.00;60484.78;5062311;28;20025;-72
2021/10/29 10:15:25;;;;;;;13.10;4.80;;;;;;;-145.18;100.00;60484.78;5062234;28;20040;-71
2021/10/29 10:17:52;;;;;;;10.87;4.70;;;;;;;-145.18;100.00;60484.78;5062293;28;20036;-71
2021/10/29 10:20:19;;;;;;;8.93;4.60;;;;;;;-145.18;100.00;60484.78;5061709;28;20040;-70
2021/10/29 10:22:48;;;;;;;9.93;4.30;;;;;;;-145.18;100.00;60484.78;5061640;28;20059;-72
2021/10/29 10:42:42;;;;;;;10.20;4.40;;;;;;;-145.18;100.00;60484.78;4945145;28;20215;-71
2021/10/29 10:45:19;;;;;;;10.17;3.97;;;;;;;-145.18;100.00;60484.78;4928633;28;20452;-71
2021/10/29 10:47:50;;;;;;;9.87;4.43;;;;;;;-145.18;100.00;60484.78;4938948;28;20623;-70
2021/10/29 10:50:26;;;;;;;8.77;4.47;;;;;;;-145.18;100.00;60484.78;4940347;28;20035;-70
2021/10/29 10:53:16;;;;;;;12.60;4.37;;;;;;;-145.18;100.00;60484.78;4941670;28;20122;-70
2021/10/29 10:59:55;;;;;;;13.63;4.33;;;;;;;-145.18;100.00;60484.78;4899551;29;20509;-71
2021/10/29 11:02:42;;;;;;;7.73;3.80;;;;;;;-145.18;100.00;60484.78;4901705;29;20123;-71
2021/10/29 11:11:25;;;;;;;10.53;4.30;;;;;;;-145.18;100.00;60484.78;4881644;29;20064;-70
2021/10/29 11:13:59;;;;;;;8.43;4.20;;;;;;;-145.18;100.00;60484.78;4901633;29;20083;-70
2021/10/29 11:16:37;;;;;;;9.60;4.30;;;;;;;-145.18;100.00;60484.78;4920062;29;20119;-70
2021/10/29 11:19:23;;;;;;;11.83;4.27;;;;;;;-145.18;100.00;60484.78;4910758;29;20040;-70
2021/10/29 11:21:55;;;;;;;7.93;3.87;;;;;;;-145.18;100.00;60484.78;4917421;29;20047;-70
2021/10/29 11:24:33;;;;;;;8.43;4.37;;;;;;;-145.18;100.00;60484.78;4918484;29;20206;-70
2021/10/29 11:27:18;;;;;;;13.00;4.33;;;;;;;-145.18;100.00;60484.78;4919500;28;20114;-70
2021/10/29 11:29:55;;;;;;;9.77;4.37;;;;;;;-145.18;100.00;60484.78;4919692;29;20042;-71
2021/10/29 11:32:23;;;;;;;8.33;4.03;;;;;;;-145.18;100.00;60484.78;4919467;29;20031;-71
2021/10/29 11:34:53;;;;;;;8.93;4.03;;;;;;;-145.18;100.00;60484.78;4955229;28;20491;-71
2021/10/29 11:37:19;;;;;;;9.90;3.63;;;;;;;-145.18;100.00;60484.78;4977018;28;20754;-71
2021/10/29 11:39:44;;;;;;;7.87;3.87;;;;;;;-145.18;100.00;60484.78;4977670;28;20030;-70
2021/10/29 11:42:10;;;;;;;7.40;3.43;;;;;;;-145.18;100.00;60484.78;5017382;28;20045;-70
2021/10/29 11:44:38;;;;;;;7.07;3.00;;;;;;;-145.18;100.00;60484.78;5059617;28;20281;-71
2021/10/29 11:47:06;;;;;;;8.97;2.87;;;;;;;-145.18;100.00;60484.78;5058041;28;20020;-71
2021/10/29 11:49:32;;;;;;;8.37;3.60;;;;;;;-145.18;100.00;60484.78;5057853;28;20013;-70
2021/10/29 11:52:02;;;;;;;8.17;3.43;;;;;;;-145.18;100.00;60484.78;5058934;28;20086;-71
2021/10/29 11:54:34;;;;;;;7.63;3.50;;;;;;;-145.18;100.00;60484.78;5058710;28;20025;-71
2021/10/29 12:08:09;;;;;;;5.17;2.30;;;;;;;-145.18;100.00;60484.78;5059001;28;20405;-69
2021/10/29 12:10:39;;;;;;;5.77;2.40;;;;;;;-145.18;100.00;60484.78;5058791;28;20044;-70
2021/10/29 12:13:05;;;;;;;5.67;2.60;;;;;;;-145.18;100.00;60484.78;5058927;28;20044;-70
2021/10/29 12:15:31;;;;;;;4.80;2.27;;;;;;;-145.18;100.00;60484.78;5059186;28;20043;-70
2021/10/29 12:18:06;;;;;;;6.57;2.63;;;;;;;-145.18;100.00;60484.78;5058312;28;20032;-70
2021/10/29 12:20:41;;;;;;;5.60;2.70;;;;;;;-145.18;100.00;60484.78;5053906;28;20036;-70
2021/10/29 12:23:13;;;;;;;4.47;2.03;;;;;;;-145.18;100.00;60484.78;5055712;28;20036;-69
2021/10/29 12:25:57;;;;;;;;;;;;;;;-145.18;100.00;60484.78;5058534;28;20040;-70
2021/10/29 12:32:21;;;;;;;5.00;2.43;;;;;;;-145.18;100.00;60484.78;5056938;28;20040;-70
2021/10/29 12:34:29;;;;;;;4.80;2.13;;;;;;;-145.18;100.00;60484.78;5047153;28;20049;-70
2021/10/29 12:54:35;;;;;;;5.53;2.90;;;;;;;-145.18;100.00;60484.78;5054202;28;20039;-69
2021/10/29 13:02:28;;;;;;;5.00;2.33;;;;;;;-145.18;100.00;60484.78;5057758;28;20186;-70
2021/10/29 13:04:57;;;;;;;5.60;2.70;;;;;;;-145.18;100.00;60484.78;5058232;28;20096;-70
2021/10/29 13:07:28;;;;;;;5.70;2.67;;;;;;;-145.18;100.00;60484.78;5057558;28;20059;-70
2021/10/29 13:10:14;;;;;;;5.07;2.67;;;;;;;-145.18;100.00;60484.78;5051285;28;20576;-71
2021/10/29 13:15:27;;;;;;;7.03;3.17;;;;;;;-145.18;100.00;60484.78;5057901;28;20258;-70
2021/10/29 13:18:00;;;;;;;4.93;2.67;;;;;;;-145.18;100.00;60484.78;5058019;28;20025;-70
2021/10/29 13:54:16;;;;;;;6.47;2.90;;;;;;;-145.18;100.00;60484.78;4792874;29;20047;-71
2021/10/29 13:57:07;;;;;;;4.60;2.40;;;;;;;-145.18;100.00;60484.78;4797064;29;20743;-71
2021/10/29 14:30:35;;;;;;;6.17;2.73;;;;;;;-145.18;100.00;60484.78;4908440;28;20205;-71
2021/10/29 14:33:02;;;;;;;5.87;2.80;;;;;;;-145.18;100.00;60484.78;4944399;28;20050;-71